Time;durP1;ratioP1;P1;durP2;ratioP2;P2;SDS_P1;SDS_P2;PMS_P1;PMS_P2;Temp;Humidity;BMP_temperature;BMP_pressure;BME280_temperature;BME280_humidity;BME280_pressure;Samples;Min_cycle;Max_cycle;Signal;HPM_P1;HPM_P2
2023/06/11 00:00:18;;;;;;;3.38;3.17;;;;;;;;;;5063313;28;20570;-81
2023/06/11 00:02:45;;;;;;;3.85;3.55;;;;;;;;;;5076443;28;20205;-80
2023/06/11 00:05:15;;;;;;;4.18;3.88;;;;;;;;;;5062907;28;20211;-80
2023/06/11 00:07:43;;;;;;;4.30;4.00;;;;;;;;;;5065798;28;20777;-80
2023/06/11 00:10:11;;;;;;;3.53;3.22;;;;;;;;;;5069387;28;20207;-81
2023/06/11 00:12:38;;;;;;;4.85;4.40;;;;;;;;;;5065079;28;20229;-81
2023/06/11 00:15:08;;;;;;;3.90;3.60;;;;;;;;;;5061519;28;20299;-81
2023/06/11 00:17:36;;;;;;;3.75;3.45;;;;;;;;;;5067828;28;20231;-81
2023/06/11 00:20:11;;;;;;;3.67;3.38;;;;;;;;;;5069317;28;20725;-81
2023/06/11 00:22:39;;;;;;;3.88;3.58;;;;;;;;;;5071785;28;20197;-80
2023/06/11 00:25:08;;;;;;;4.43;4.03;;;;;;;;;;5069579;28;20205;-80
2023/06/11 00:27:36;;;;;;;3.85;3.60;;;;;;;;;;5071330;28;20316;-81
2023/06/11 00:30:04;;;;;;;3.90;3.60;;;;;;;;;;5070793;28;20224;-80
2023/06/11 00:32:34;;;;;;;3.80;3.50;;;;;;;;;;5070097;28;20217;-80
2023/06/11 00:35:06;;;;;;;3.40;3.20;;;;;;;;;;5071822;28;20201;-81
2023/06/11 00:37:34;;;;;;;3.58;3.28;;;;;;;;;;5071458;28;20251;-80
2023/06/11 00:40:02;;;;;;;4.07;3.75;;;;;;;;;;5071023;28;20205;-81
2023/06/11 00:42:30;;;;;;;4.15;3.75;;;;;;;;;;5071422;28;20619;-81
2023/06/11 00:44:57;;;;;;;4.35;4.05;;;;;;;;;;5070527;28;20669;-80
2023/06/11 00:47:25;;;;;;;4.55;3.95;;;;;;;;;;5073175;28;20221;-81
2023/06/11 00:49:54;;;;;;;5.63;5.22;;;;;;;;;;5070119;28;20794;-81
2023/06/11 00:52:21;;;;;;;4.60;4.30;;;;;;;;;;5075963;28;20221;-80
2023/06/11 00:54:49;;;;;;;6.13;4.30;;;;;;;;;;5068895;28;20657;-85
2023/06/11 00:57:22;;;;;;;4.93;4.55;;;;;;;;;;5072785;28;20665;-80
2023/06/11 00:59:51;;;;;;;4.40;4.00;;;;;;;;;;5074606;28;20197;-81
2023/06/11 01:02:24;;;;;;;4.50;4.18;;;;;;;;;;5075616;28;20221;-81
2023/06/11 01:04:56;;;;;;;4.13;3.83;;;;;;;;;;5074109;28;20599;-80
2023/06/11 01:07:26;;;;;;;4.95;4.55;;;;;;;;;;5073834;28;20594;-81
2023/06/11 01:09:53;;;;;;;4.38;3.95;;;;;;;;;;5073056;28;20579;-80
2023/06/11 01:12:22;;;;;;;4.70;4.30;;;;;;;;;;5072001;28;20204;-80
2023/06/11 01:14:49;;;;;;;4.20;3.90;;;;;;;;;;5074012;28;20876;-80
2023/06/11 01:17:23;;;;;;;4.68;4.28;;;;;;;;;;5074971;28;20233;-80
2023/06/11 01:20:09;;;;;;;5.03;4.70;;;;;;;;;;5073405;28;20635;-80
2023/06/11 01:23:04;;;;;;;5.50;5.10;;;;;;;;;;5072854;28;20303;-80
2023/06/11 01:25:39;;;;;;;4.43;4.13;;;;;;;;;;5070642;28;20224;-81
2023/06/11 01:28:11;;;;;;;4.13;3.80;;;;;;;;;;5075202;28;20220;-80
2023/06/11 01:30:40;;;;;;;5.22;4.78;;;;;;;;;;5071939;28;20204;-80
2023/06/11 01:33:09;;;;;;;4.85;4.38;;;;;;;;;;5075473;28;20220;-80
2023/06/11 01:35:36;;;;;;;5.78;4.95;;;;;;;;;;5074725;28;20211;-80
2023/06/11 01:38:06;;;;;;;5.13;4.65;;;;;;;;;;5073977;28;20290;-80
2023/06/11 01:40:33;;;;;;;5.00;4.60;;;;;;;;;;5074143;28;20197;-80
2023/06/11 01:43:02;;;;;;;5.63;5.13;;;;;;;;;;5073793;28;20570;-80
2023/06/11 01:45:32;;;;;;;5.10;4.70;;;;;;;;;;5071618;28;20204;-80
2023/06/11 01:48:00;;;;;;;4.57;4.10;;;;;;;;;;5064847;28;20299;-80
2023/06/11 01:50:28;;;;;;;5.22;4.72;;;;;;;;;;5073681;28;20205;-81
2023/06/11 01:52:55;;;;;;;4.88;4.47;;;;;;;;;;5077572;28;20669;-80
2023/06/11 01:55:23;;;;;;;5.68;5.18;;;;;;;;;;5079458;28;20669;-80
2023/06/11 01:57:50;;;;;;;4.57;4.18;;;;;;;;;;5072636;28;20216;-80
2023/06/11 02:00:18;;;;;;;5.18;4.78;;;;;;;;;;5074077;28;20211;-80
2023/06/11 02:02:48;;;;;;;5.15;4.75;;;;;;;;;;5071831;28;20203;-80
2023/06/11 02:05:16;;;;;;;5.28;4.78;;;;;;;;;;5075393;28;20223;-80
2023/06/11 02:07:44;;;;;;;4.80;4.40;;;;;;;;;;5073349;28;20224;-80
2023/06/11 02:10:12;;;;;;;5.50;5.00;;;;;;;;;;5071885;28;20695;-80
2023/06/11 02:12:39;;;;;;;5.53;5.00;;;;;;;;;;5075015;28;20207;-80
2023/06/11 02:15:08;;;;;;;4.65;4.25;;;;;;;;;;5075737;28;20283;-80
2023/06/11 02:17:36;;;;;;;6.05;5.55;;;;;;;;;;5072145;28;20225;-81
2023/06/11 02:20:06;;;;;;;5.13;4.38;;;;;;;;;;5073138;28;20677;-80
2023/06/11 02:22:34;;;;;;;5.72;5.28;;;;;;;;;;5074523;28;20288;-80
2023/06/11 02:25:02;;;;;;;4.88;4.47;;;;;;;;;;5069288;28;20193;-80
2023/06/11 02:27:29;;;;;;;5.57;5.15;;;;;;;;;;5065266;28;20222;-81
2023/06/11 02:29:57;;;;;;;5.05;4.65;;;;;;;;;;5072528;28;20636;-80
2023/06/11 02:32:25;;;;;;;6.00;5.50;;;;;;;;;;5073811;28;20203;-80
2023/06/11 02:34:52;;;;;;;5.25;4.80;;;;;;;;;;5072832;28;20729;-80
2023/06/11 02:37:21;;;;;;;5.60;5.20;;;;;;;;;;5070880;28;20224;-80
2023/06/11 02:39:48;;;;;;;5.70;5.22;;;;;;;;;;5071620;28;20293;-80
2023/06/11 02:42:16;;;;;;;5.53;5.03;;;;;;;;;;5071905;28;20200;-81
2023/06/11 02:44:43;;;;;;;5.25;4.85;;;;;;;;;;5071895;28;20203;-81
2023/06/11 02:47:11;;;;;;;5.25;4.82;;;;;;;;;;5069581;28;20303;-80
2023/06/11 02:49:38;;;;;;;5.50;5.07;;;;;;;;;;5070961;28;20221;-80
2023/06/11 02:52:07;;;;;;;5.25;4.82;;;;;;;;;;5072139;28;20279;-80
2023/06/11 02:54:36;;;;;;;4.65;4.25;;;;;;;;;;5065271;28;20217;-81
2023/06/11 02:57:03;;;;;;;4.68;4.32;;;;;;;;;;5069285;28;20231;-80
2023/06/11 02:59:30;;;;;;;4.47;4.05;;;;;;;;;;5071605;28;20203;-80
2023/06/11 03:01:58;;;;;;;5.35;4.85;;;;;;;;;;5073271;28;20201;-80
2023/06/11 03:04:25;;;;;;;5.45;5.05;;;;;;;;;;5073917;28;20679;-80
2023/06/11 03:06:53;;;;;;;3.47;3.17;;;;;;;;;;5072083;28;20201;-80
2023/06/11 03:09:21;;;;;;;4.43;4.13;;;;;;;;;;5071708;28;20684;-80
2023/06/11 03:11:49;;;;;;;4.47;4.13;;;;;;;;;;5071943;28;20300;-80
2023/06/11 03:14:17;;;;;;;4.47;4.18;;;;;;;;;;5072786;28;20312;-81
2023/06/11 03:16:44;;;;;;;5.07;4.68;;;;;;;;;;5072093;28;20653;-80
2023/06/11 03:19:12;;;;;;;6.22;5.55;;;;;;;;;;5071089;28;20268;-80
2023/06/11 03:21:39;;;;;;;5.03;4.63;;;;;;;;;;5071657;28;20555;-80
2023/06/11 03:24:07;;;;;;;5.10;4.70;;;;;;;;;;5071415;28;20211;-80
2023/06/11 03:26:34;;;;;;;5.40;4.90;;;;;;;;;;5072793;28;20200;-80
2023/06/11 03:29:03;;;;;;;4.25;3.95;;;;;;;;;;5072592;28;20231;-80
2023/06/11 03:31:31;;;;;;;5.15;4.75;;;;;;;;;;5069580;28;20611;-80
2023/06/11 03:33:58;;;;;;;5.13;4.72;;;;;;;;;;5070089;28;20239;-80
2023/06/11 03:36:25;;;;;;;4.88;4.47;;;;;;;;;;5071803;28;20560;-80
2023/06/11 03:38:53;;;;;;;5.07;4.60;;;;;;;;;;5070821;28;20217;-80
2023/06/11 03:41:21;;;;;;;4.97;4.57;;;;;;;;;;5071687;28;20248;-80
2023/06/11 03:43:48;;;;;;;5.65;5.15;;;;;;;;;;5072961;28;20597;-80
2023/06/11 03:46:19;;;;;;;5.10;4.65;;;;;;;;;;5070744;28;20201;-80
2023/06/11 03:48:47;;;;;;;4.88;4.40;;;;;;;;;;5065259;28;20311;-80
2023/06/11 03:51:14;;;;;;;3.75;3.53;;;;;;;;;;5070866;28;20199;-80
2023/06/11 03:53:42;;;;;;;4.85;4.38;;;;;;;;;;5061719;28;20288;-80
2023/06/11 03:56:09;;;;;;;4.35;4.05;;;;;;;;;;5070129;28;20217;-80
2023/06/11 03:58:37;;;;;;;5.10;4.60;;;;;;;;;;5073872;28;20243;-80
2023/06/11 04:01:04;;;;;;;4.80;4.40;;;;;;;;;;5071596;28;20204;-81
2023/06/11 04:03:33;;;;;;;4.95;4.55;;;;;;;;;;5063886;28;20568;-81
2023/06/11 04:06:02;;;;;;;4.80;4.40;;;;;;;;;;5073039;28;20728;-81
2023/06/11 04:08:29;;;;;;;4.25;3.95;;;;;;;;;;5072996;28;20220;-80
2023/06/11 04:10:57;;;;;;;5.00;4.60;;;;;;;;;;5064022;28;20201;-80
2023/06/11 04:13:24;;;;;;;5.03;4.63;;;;;;;;;;5073014;28;20203;-79
2023/06/11 04:15:52;;;;;;;5.07;4.78;;;;;;;;;;5071028;28;20303;-80
2023/06/11 04:18:19;;;;;;;4.70;4.40;;;;;;;;;;5068736;28;20316;-81
2023/06/11 04:20:48;;;;;;;5.40;5.00;;;;;;;;;;5074527;28;20252;-80
2023/06/11 04:23:15;;;;;;;4.57;4.28;;;;;;;;;;5076378;28;20272;-80
2023/06/11 04:25:43;;;;;;;4.20;3.95;;;;;;;;;;5075130;28;20279;-80
2023/06/11 04:28:16;;;;;;;4.90;4.50;;;;;;;;;;5075885;28;20221;-80
2023/06/11 04:30:43;;;;;;;5.07;4.68;;;;;;;;;;5067666;28;20205;-80
2023/06/11 04:33:11;;;;;;;4.35;4.03;;;;;;;;;;5074344;28;20205;-80
2023/06/11 04:35:39;;;;;;;4.72;4.40;;;;;;;;;;5074002;28;20697;-80
2023/06/11 04:38:08;;;;;;;4.50;4.20;;;;;;;;;;5075808;28;20225;-81
2023/06/11 04:40:36;;;;;;;5.78;5.28;;;;;;;;;;5073998;28;20250;-81
2023/06/11 04:43:03;;;;;;;3.95;3.72;;;;;;;;;;5070695;28;20269;-80
2023/06/11 04:45:33;;;;;;;3.67;3.38;;;;;;;;;;5075505;28;20194;-80
2023/06/11 04:48:03;;;;;;;4.30;3.92;;;;;;;;;;5076378;28;20217;-80
2023/06/11 04:50:31;;;;;;;4.65;4.32;;;;;;;;;;5075166;28;20213;-80
2023/06/11 04:53:01;;;;;;;4.70;4.30;;;;;;;;;;5074845;28;20278;-81
2023/06/11 04:55:38;;;;;;;6.43;5.82;;;;;;;;;;5073582;28;20622;-80
2023/06/11 04:58:05;;;;;;;7.40;6.80;;;;;;;;;;5074534;28;20573;-80
2023/06/11 05:00:33;;;;;;;6.15;5.55;;;;;;;;;;5074155;28;20197;-81
2023/06/11 05:03:01;;;;;;;6.53;5.90;;;;;;;;;;5075241;28;20683;-81
2023/06/11 05:05:29;;;;;;;5.72;5.32;;;;;;;;;;5075747;28;20232;-80
2023/06/11 05:07:56;;;;;;;5.82;5.38;;;;;;;;;;5075296;28;20216;-81
2023/06/11 05:10:24;;;;;;;5.40;5.00;;;;;;;;;;5072989;28;20200;-81
2023/06/11 05:12:53;;;;;;;5.63;5.13;;;;;;;;;;5071841;28;20201;-81
2023/06/11 05:15:20;;;;;;;5.63;5.20;;;;;;;;;;5073292;28;20236;-81
2023/06/11 05:20:16;;;;;;;6.43;5.85;;;;;;;;;;5071543;28;20267;-79
2023/06/11 05:22:46;;;;;;;5.35;4.90;;;;;;;;;;5064363;28;20205;-79
2023/06/11 05:25:19;;;;;;;5.53;5.03;;;;;;;;;;5074732;28;20201;-80
2023/06/11 05:27:46;;;;;;;5.05;4.65;;;;;;;;;;5068887;28;20217;-79
2023/06/11 05:30:17;;;;;;;4.82;4.43;;;;;;;;;;5051668;28;20208;-79
2023/06/11 05:32:44;;;;;;;4.90;4.50;;;;;;;;;;5053237;28;20220;-81
2023/06/11 05:35:11;;;;;;;5.70;5.20;;;;;;;;;;5061933;28;20220;-79
2023/06/11 05:37:39;;;;;;;6.70;5.78;;;;;;;;;;5054452;28;20247;-80
2023/06/11 05:40:09;;;;;;;5.47;5.03;;;;;;;;;;5052133;28;20204;-79
2023/06/11 05:42:36;;;;;;;5.63;5.10;;;;;;;;;;5053746;28;20289;-81
2023/06/11 05:45:04;;;;;;;6.82;5.32;;;;;;;;;;5051596;28;20284;-80
2023/06/11 05:47:34;;;;;;;6.25;5.72;;;;;;;;;;5057036;28;20198;-80
2023/06/11 05:50:02;;;;;;;5.60;5.20;;;;;;;;;;5046939;28;20260;-81
2023/06/11 05:52:29;;;;;;;5.32;4.93;;;;;;;;;;5052553;28;20285;-81
2023/06/11 05:54:57;;;;;;;6.78;6.25;;;;;;;;;;5058235;28;20205;-80
2023/06/11 05:57:27;;;;;;;5.82;5.40;;;;;;;;;;5055359;28;20230;-80
2023/06/11 05:59:54;;;;;;;5.90;5.47;;;;;;;;;;5054078;28;20197;-80
2023/06/11 06:02:22;;;;;;;5.57;5.07;;;;;;;;;;5054408;28;20284;-81
2023/06/11 06:04:51;;;;;;;5.75;5.25;;;;;;;;;;5053226;28;20733;-80
2023/06/11 06:07:19;;;;;;;6.03;5.53;;;;;;;;;;5053478;28;20292;-80
2023/06/11 06:09:46;;;;;;;7.72;5.63;;;;;;;;;;5053644;28;20574;-81
2023/06/11 06:12:14;;;;;;;5.82;5.28;;;;;;;;;;5057599;28;20677;-81
2023/06/11 06:14:41;;;;;;;4.85;4.45;;;;;;;;;;5052845;28;20225;-80
2023/06/11 06:17:09;;;;;;;5.30;4.82;;;;;;;;;;5054057;28;20309;-79
2023/06/11 06:19:36;;;;;;;6.53;6.03;;;;;;;;;;5053896;28;20229;-80
2023/06/11 06:22:06;;;;;;;4.80;4.40;;;;;;;;;;5052538;28;20200;-81
2023/06/11 06:24:33;;;;;;;5.32;4.93;;;;;;;;;;5053527;28;20202;-83
2023/06/11 06:27:01;;;;;;;4.90;4.50;;;;;;;;;;5051938;28;20202;-80
2023/06/11 06:29:31;;;;;;;4.30;3.90;;;;;;;;;;5057433;28;20216;-80
2023/06/11 06:31:58;;;;;;;4.10;3.80;;;;;;;;;;5052979;28;20292;-81
2023/06/11 06:34:27;;;;;;;3.80;3.50;;;;;;;;;;5060574;28;20288;-81
2023/06/11 06:36:54;;;;;;;5.53;5.03;;;;;;;;;;5055618;28;20291;-82
2023/06/11 06:39:23;;;;;;;4.47;4.15;;;;;;;;;;5055385;28;20221;-81
2023/06/11 06:41:50;;;;;;;4.32;3.90;;;;;;;;;;5052961;28;20210;-82
2023/06/11 06:44:18;;;;;;;4.13;3.83;;;;;;;;;;5053049;28;20784;-80
2023/06/11 06:46:45;;;;;;;3.83;3.53;;;;;;;;;;5059699;28;20616;-81
2023/06/11 06:49:13;;;;;;;4.55;4.25;;;;;;;;;;5065434;28;20222;-81
2023/06/11 06:51:40;;;;;;;4.38;4.00;;;;;;;;;;5062456;28;20236;-79
2023/06/11 06:54:07;;;;;;;5.03;4.55;;;;;;;;;;5064484;28;20221;-79
2023/06/11 06:56:36;;;;;;;5.38;4.82;;;;;;;;;;5063211;28;20300;-80
2023/06/11 06:59:04;;;;;;;5.20;4.00;;;;;;;;;;5057818;28;20249;-81
2023/06/11 07:01:32;;;;;;;4.22;3.92;;;;;;;;;;5056206;28;20223;-81
2023/06/11 07:04:00;;;;;;;5.72;5.30;;;;;;;;;;5057080;28;20202;-81
2023/06/11 07:06:27;;;;;;;4.65;4.25;;;;;;;;;;5056078;28;20313;-82
2023/06/11 07:08:55;;;;;;;4.38;4.00;;;;;;;;;;5055740;28;20300;-81
2023/06/11 07:11:22;;;;;;;3.85;3.55;;;;;;;;;;5055379;28;20228;-81
2023/06/11 07:13:51;;;;;;;3.83;3.63;;;;;;;;;;5055410;28;20208;-81
2023/06/11 07:16:19;;;;;;;4.13;3.67;;;;;;;;;;5055678;28;20221;-81
2023/06/11 07:18:46;;;;;;;4.90;4.50;;;;;;;;;;5054987;28;20787;-80
2023/06/11 07:21:14;;;;;;;4.28;3.97;;;;;;;;;;5054763;28;20205;-81
2023/06/11 07:23:42;;;;;;;4.78;4.38;;;;;;;;;;5055671;28;20211;-82
2023/06/11 07:26:11;;;;;;;4.15;3.85;;;;;;;;;;5055994;28;20206;-82
2023/06/11 07:28:39;;;;;;;4.90;4.50;;;;;;;;;;5057091;28;20253;-82
2023/06/11 07:31:08;;;;;;;5.97;5.47;;;;;;;;;;5056479;28;20289;-82
2023/06/11 07:33:36;;;;;;;4.25;3.95;;;;;;;;;;5053879;28;20292;-81
2023/06/11 07:36:03;;;;;;;4.72;4.00;;;;;;;;;;5054680;28;20697;-81
2023/06/11 07:38:31;;;;;;;4.07;3.78;;;;;;;;;;5054494;28;20228;-81
2023/06/11 07:40:58;;;;;;;4.78;4.47;;;;;;;;;;5054252;28;20202;-82
2023/06/11 07:43:26;;;;;;;5.40;5.00;;;;;;;;;;5055199;28;20228;-82
2023/06/11 07:45:54;;;;;;;6.05;5.55;;;;;;;;;;5056360;28;20205;-83
2023/06/11 07:48:22;;;;;;;4.15;3.85;;;;;;;;;;5055230;28;20304;-81
2023/06/11 07:50:52;;;;;;;6.15;5.18;;;;;;;;;;5056222;28;20292;-82
2023/06/11 07:53:21;;;;;;;4.43;4.03;;;;;;;;;;5054644;28;20285;-81
2023/06/11 07:55:50;;;;;;;4.53;4.22;;;;;;;;;;5056132;28;20201;-81
2023/06/11 07:58:18;;;;;;;5.20;4.80;;;;;;;;;;5055282;28;20226;-82
2023/06/11 08:00:45;;;;;;;5.57;5.07;;;;;;;;;;5055617;28;20292;-81
2023/06/11 08:03:13;;;;;;;4.75;4.40;;;;;;;;;;5055045;28;20211;-81
2023/06/11 08:05:42;;;;;;;5.55;5.18;;;;;;;;;;5054274;28;20288;-82
2023/06/11 08:08:09;;;;;;;6.55;5.88;;;;;;;;;;5054465;28;20228;-82
2023/06/11 08:10:37;;;;;;;5.70;5.30;;;;;;;;;;5053484;28;20681;-82
2023/06/11 08:13:05;;;;;;;5.38;4.88;;;;;;;;;;5054944;28;20697;-83
2023/06/11 08:15:33;;;;;;;5.38;4.97;;;;;;;;;;5055468;28;20265;-81
2023/06/11 08:18:00;;;;;;;5.15;4.75;;;;;;;;;;5054154;28;20225;-82
2023/06/11 08:20:28;;;;;;;4.85;4.40;;;;;;;;;;5054072;28;20396;-81
2023/06/11 08:22:57;;;;;;;4.75;4.45;;;;;;;;;;5054385;28;20699;-81
2023/06/11 08:25:25;;;;;;;4.43;4.07;;;;;;;;;;5054083;28;20666;-82
2023/06/11 08:27:52;;;;;;;4.90;4.60;;;;;;;;;;5054322;28;20308;-79
2023/06/11 08:30:20;;;;;;;4.35;4.05;;;;;;;;;;5055208;28;20208;-80
2023/06/11 08:32:47;;;;;;;4.38;4.07;;;;;;;;;;5055872;28;20231;-81
2023/06/11 08:35:15;;;;;;;4.35;3.95;;;;;;;;;;5053696;28;20206;-81
2023/06/11 08:37:42;;;;;;;3.83;3.60;;;;;;;;;;5053776;28;20233;-80
2023/06/11 08:40:13;;;;;;;4.60;4.20;;;;;;;;;;5052885;28;20202;-80
2023/06/11 08:42:40;;;;;;;4.28;4.00;;;;;;;;;;5053637;28;20569;-83
2023/06/11 08:45:09;;;;;;;4.55;4.25;;;;;;;;;;5054636;28;20209;-82
2023/06/11 08:47:40;;;;;;;5.15;4.65;;;;;;;;;;5054620;28;20222;-81
2023/06/11 08:50:09;;;;;;;4.55;4.25;;;;;;;;;;5053721;28;20209;-82
2023/06/11 08:52:36;;;;;;;5.40;4.97;;;;;;;;;;5053444;28;20206;-81
2023/06/11 08:55:04;;;;;;;5.07;4.70;;;;;;;;;;5053755;28;20201;-81
2023/06/11 08:57:33;;;;;;;5.78;5.28;;;;;;;;;;5054419;28;20256;-84
2023/06/11 09:00:01;;;;;;;5.40;4.85;;;;;;;;;;5053746;28;20285;-85
2023/06/11 09:02:29;;;;;;;3.92;3.63;;;;;;;;;;5053140;28;20206;-81
2023/06/11 09:04:56;;;;;;;4.10;3.80;;;;;;;;;;5054328;28;20209;-85
2023/06/11 09:07:25;;;;;;;4.82;3.92;;;;;;;;;;5056794;28;20204;-82
2023/06/11 09:10:06;;;;;;;4.57;4.18;;;;;;;;;;5057671;28;20297;-82
2023/06/11 09:12:35;;;;;;;3.80;3.50;;;;;;;;;;5057221;28;20201;-83
2023/06/11 09:15:04;;;;;;;4.35;4.05;;;;;;;;;;5057886;28;20627;-83
2023/06/11 09:17:36;;;;;;;3.80;3.50;;;;;;;;;;5058027;28;20228;-84
2023/06/11 09:20:07;;;;;;;4.38;4.07;;;;;;;;;;5057409;28;20296;-84
2023/06/11 09:22:37;;;;;;;4.68;4.38;;;;;;;;;;5058189;28;20737;-84
2023/06/11 09:25:06;;;;;;;5.10;3.80;;;;;;;;;;5058399;28;20704;-85
2023/06/11 09:27:35;;;;;;;4.18;3.83;;;;;;;;;;5055735;28;20666;-82
2023/06/11 09:30:11;;;;;;;4.03;3.67;;;;;;;;;;5056812;28;20205;-82
2023/06/11 09:32:40;;;;;;;3.45;3.25;;;;;;;;;;5057207;28;20201;-84
2023/06/11 09:35:09;;;;;;;6.43;3.45;;;;;;;;;;5056241;28;20237;-85
2023/06/11 09:37:45;;;;;;;3.78;3.38;;;;;;;;;;5056585;28;20226;-87
2023/06/11 09:40:16;;;;;;;3.28;3.00;;;;;;;;;;5056652;28;20819;-83
2023/06/11 09:42:47;;;;;;;4.20;3.80;;;;;;;;;;5056143;28;20591;-83
2023/06/11 09:45:16;;;;;;;3.97;3.67;;;;;;;;;;5056038;28;20772;-84
2023/06/11 09:47:46;;;;;;;4.32;3.92;;;;;;;;;;5056188;28;20708;-85
2023/06/11 09:50:14;;;;;;;3.13;2.92;;;;;;;;;;5056018;28;20666;-82
2023/06/11 09:52:42;;;;;;;3.92;3.63;;;;;;;;;;5056144;28;20198;-83
2023/06/11 09:55:11;;;;;;;3.20;3.00;;;;;;;;;;5055767;28;20640;-82
2023/06/11 09:57:40;;;;;;;3.85;3.20;;;;;;;;;;5055154;28;20245;-85
2023/06/11 10:00:12;;;;;;;3.10;2.90;;;;;;;;;;5055549;28;20229;-82
2023/06/11 10:02:40;;;;;;;4.35;3.95;;;;;;;;;;5055900;28;20202;-84
2023/06/11 10:05:09;;;;;;;4.30;3.90;;;;;;;;;;5055796;28;20666;-85
2023/06/11 10:07:42;;;;;;;3.90;3.60;;;;;;;;;;5056458;28;20221;-84
2023/06/11 10:10:12;;;;;;;4.03;3.63;;;;;;;;;;5055837;28;20630;-85
2023/06/11 10:12:39;;;;;;;4.18;3.88;;;;;;;;;;5054605;28;20200;-84
2023/06/11 10:15:13;;;;;;;3.90;3.63;;;;;;;;;;5055089;28;20205;-84
2023/06/11 10:17:47;;;;;;;4.30;4.00;;;;;;;;;;5054806;28;20229;-81
2023/06/11 10:20:26;;;;;;;4.53;4.13;;;;;;;;;;5054699;28;20213;-85
2023/06/11 10:23:05;;;;;;;3.65;3.38;;;;;;;;;;5054071;28;20669;-85
2023/06/11 10:25:34;;;;;;;3.55;3.25;;;;;;;;;;5054196;28;20807;-84
2023/06/11 10:28:02;;;;;;;3.38;3.08;;;;;;;;;;5053710;28;20688;-83
2023/06/11 10:30:31;;;;;;;3.53;3.33;;;;;;;;;;5053758;28;20202;-83
2023/06/11 10:32:59;;;;;;;5.35;3.67;;;;;;;;;;5054467;28;20304;-83
2023/06/11 10:35:28;;;;;;;3.60;3.30;;;;;;;;;;5055004;28;20694;-82
2023/06/11 10:38:07;;;;;;;3.83;3.53;;;;;;;;;;5055043;28;20699;-84
2023/06/11 10:40:39;;;;;;;3.55;3.25;;;;;;;;;;5055200;28;20269;-83
2023/06/11 10:43:16;;;;;;;4.00;3.70;;;;;;;;;;5055043;28;20284;-85
2023/06/11 10:45:45;;;;;;;4.20;3.88;;;;;;;;;;5058878;28;20204;-84
2023/06/11 10:48:14;;;;;;;3.72;3.38;;;;;;;;;;5060986;28;20313;-83
2023/06/11 10:50:41;;;;;;;4.10;3.47;;;;;;;;;;5058295;28;20293;-85
2023/06/11 10:53:13;;;;;;;3.53;3.33;;;;;;;;;;5059482;28;20205;-86
2023/06/11 10:55:44;;;;;;;4.07;3.67;;;;;;;;;;5058952;28;20197;-85
2023/06/11 10:58:22;;;;;;;4.70;4.28;;;;;;;;;;5059043;28;20304;-85
2023/06/11 11:00:53;;;;;;;3.92;3.65;;;;;;;;;;5057880;28;20209;-85
2023/06/11 11:03:22;;;;;;;3.95;3.55;;;;;;;;;;5058736;28;20192;-85
2023/06/11 11:05:52;;;;;;;4.00;3.70;;;;;;;;;;5059675;28;20201;-84
2023/06/11 11:08:19;;;;;;;4.10;3.75;;;;;;;;;;5057594;28;20214;-84
2023/06/11 11:10:47;;;;;;;4.07;3.78;;;;;;;;;;5057188;28;20575;-85
2023/06/11 11:13:17;;;;;;;4.32;3.97;;;;;;;;;;5057906;28;20225;-85
2023/06/11 11:15:44;;;;;;;4.68;4.28;;;;;;;;;;5057583;28;20205;-85
2023/06/11 11:18:13;;;;;;;3.78;3.47;;;;;;;;;;5074946;22;20319;-76
2023/06/11 11:20:40;;;;;;;4.25;3.72;;;;;;;;;;5072725;28;20207;-79
2023/06/11 11:23:08;;;;;;;3.60;3.40;;;;;;;;;;5072105;28;20236;-76
2023/06/11 11:25:35;;;;;;;4.10;3.80;;;;;;;;;;5072834;28;20274;-77
2023/06/11 11:28:03;;;;;;;3.75;3.45;;;;;;;;;;5071457;28;20315;-77
2023/06/11 11:30:30;;;;;;;4.95;4.05;;;;;;;;;;5071458;28;20716;-77
2023/06/11 11:32:59;;;;;;;3.90;3.60;;;;;;;;;;5072168;28;20200;-76
2023/06/11 11:35:28;;;;;;;4.32;4.03;;;;;;;;;;5072197;28;20192;-78
2023/06/11 11:37:56;;;;;;;3.97;3.67;;;;;;;;;;5071955;28;20665;-76
2023/06/11 11:40:24;;;;;;;3.58;3.28;;;;;;;;;;5071651;28;20203;-77
2023/06/11 11:42:52;;;;;;;4.10;3.80;;;;;;;;;;5071846;28;20215;-77
2023/06/11 11:45:20;;;;;;;3.97;3.67;;;;;;;;;;5072020;28;20675;-80
2023/06/11 11:47:51;;;;;;;3.83;3.40;;;;;;;;;;5071886;28;20296;-78
2023/06/11 11:50:22;;;;;;;4.07;3.33;;;;;;;;;;5072284;28;20217;-77
2023/06/11 11:53:03;;;;;;;3.70;3.33;;;;;;;;;;5072250;28;20197;-76
2023/06/11 11:55:32;;;;;;;3.83;3.53;;;;;;;;;;5072095;28;20196;-78
2023/06/11 11:58:08;;;;;;;4.10;3.70;;;;;;;;;;5071829;28;20225;-77
2023/06/11 12:00:37;;;;;;;3.70;3.40;;;;;;;;;;5071587;28;20292;-77
2023/06/11 12:03:09;;;;;;;3.38;3.17;;;;;;;;;;5071704;28;20212;-77
2023/06/11 12:05:37;;;;;;;3.00;2.80;;;;;;;;;;5071732;28;20587;-76
2023/06/11 12:08:07;;;;;;;2.63;2.42;;;;;;;;;;5071786;28;20309;-77
2023/06/11 12:10:34;;;;;;;2.58;2.38;;;;;;;;;;5071494;28;20225;-77
2023/06/11 12:13:02;;;;;;;3.20;3.00;;;;;;;;;;5071479;28;20215;-77
2023/06/11 12:15:30;;;;;;;3.55;3.25;;;;;;;;;;5071624;28;20292;-78
2023/06/11 12:17:57;;;;;;;4.10;3.70;;;;;;;;;;5071395;28;20727;-76
2023/06/11 12:20:25;;;;;;;4.32;3.97;;;;;;;;;;5071519;28;20197;-76
2023/06/11 12:22:52;;;;;;;3.35;3.15;;;;;;;;;;5071421;28;20604;-77
2023/06/11 12:25:21;;;;;;;3.25;3.05;;;;;;;;;;5071775;28;20641;-78
2023/06/11 12:27:49;;;;;;;3.60;3.40;;;;;;;;;;5071605;28;20247;-77
2023/06/11 12:30:16;;;;;;;3.97;3.67;;;;;;;;;;5071613;28;20223;-76
2023/06/11 12:32:44;;;;;;;3.33;3.03;;;;;;;;;;5071543;28;20218;-77
2023/06/11 12:35:11;;;;;;;3.60;3.30;;;;;;;;;;5071405;28;20730;-78
2023/06/11 12:37:39;;;;;;;3.20;3.00;;;;;;;;;;5071875;28;20207;-76
2023/06/11 12:40:08;;;;;;;2.90;2.70;;;;;;;;;;5072435;28;20196;-76
2023/06/11 12:42:37;;;;;;;3.50;3.20;;;;;;;;;;5075258;28;20584;-76
2023/06/11 12:45:06;;;;;;;3.85;3.50;;;;;;;;;;5074965;28;20744;-76
2023/06/11 12:47:33;;;;;;;3.63;3.33;;;;;;;;;;5074923;28;20243;-76
2023/06/11 12:50:01;;;;;;;4.10;3.80;;;;;;;;;;5075045;28;20227;-76
2023/06/11 12:52:28;;;;;;;3.50;3.20;;;;;;;;;;5075038;28;20641;-76
2023/06/11 12:54:56;;;;;;;3.80;3.42;;;;;;;;;;5075544;28;20201;-76
2023/06/11 12:57:23;;;;;;;3.35;3.05;;;;;;;;;;5074958;28;20209;-76
2023/06/11 12:59:52;;;;;;;3.22;2.97;;;;;;;;;;5074778;28;20277;-77
2023/06/11 13:02:20;;;;;;;3.05;2.75;;;;;;;;;;5074407;28;20212;-76
2023/06/11 13:04:47;;;;;;;2.70;2.50;;;;;;;;;;5074945;28;20551;-76
2023/06/11 13:07:15;;;;;;;3.55;2.97;;;;;;;;;;5074659;28;20197;-76
2023/06/11 13:09:42;;;;;;;3.38;3.10;;;;;;;;;;5074717;28;20233;-76
2023/06/11 13:12:10;;;;;;;3.75;3.45;;;;;;;;;;5075614;28;20575;-76
2023/06/11 13:14:38;;;;;;;4.35;4.05;;;;;;;;;;5075435;28;20239;-76
2023/06/11 13:17:07;;;;;;;3.25;2.95;;;;;;;;;;5075577;28;20205;-76
2023/06/11 13:19:35;;;;;;;3.40;3.10;;;;;;;;;;5075155;28;20228;-76
2023/06/11 13:22:02;;;;;;;3.92;3.35;;;;;;;;;;5075036;28;20201;-77
2023/06/11 13:24:29;;;;;;;3.55;3.25;;;;;;;;;;5075656;28;20589;-77
2023/06/11 13:26:57;;;;;;;3.42;3.13;;;;;;;;;;5076273;28;20291;-76
2023/06/11 13:29:25;;;;;;;4.05;3.60;;;;;;;;;;5075152;28;20217;-76
2023/06/11 13:31:53;;;;;;;3.60;3.30;;;;;;;;;;5074907;28;20784;-76
2023/06/11 13:34:22;;;;;;;3.65;3.35;;;;;;;;;;5075119;28;20197;-76
2023/06/11 13:36:55;;;;;;;3.65;3.35;;;;;;;;;;5074606;28;20205;-76
2023/06/11 13:39:23;;;;;;;6.88;6.32;;;;;;;;;;5074257;28;20240;-77
2023/06/11 13:41:50;;;;;;;8.35;7.55;;;;;;;;;;5074065;28;20692;-77
2023/06/11 13:44:18;;;;;;;6.75;5.57;;;;;;;;;;5073972;28;20205;-77
2023/06/11 13:46:46;;;;;;;4.82;4.43;;;;;;;;;;5073924;28;20683;-76
2023/06/11 13:49:14;;;;;;;5.30;3.53;;;;;;;;;;5073529;28;20221;-76
2023/06/11 13:51:42;;;;;;;3.60;3.30;;;;;;;;;;5072940;28;20243;-76
2023/06/11 13:54:10;;;;;;;3.60;3.10;;;;;;;;;;5074103;28;20201;-77
2023/06/11 13:56:38;;;;;;;4.07;3.70;;;;;;;;;;5073580;28;20247;-76
2023/06/11 13:59:05;;;;;;;3.55;3.25;;;;;;;;;;5073291;28;20232;-77
2023/06/11 14:01:33;;;;;;;3.65;3.33;;;;;;;;;;5073291;28;20286;-76
2023/06/11 14:04:00;;;;;;;3.38;3.08;;;;;;;;;;5073292;28;20203;-76
2023/06/11 14:06:27;;;;;;;3.13;2.92;;;;;;;;;;5073267;28;20197;-76
2023/06/11 14:08:56;;;;;;;2.83;2.63;;;;;;;;;;5073058;28;20225;-76
2023/06/11 14:11:25;;;;;;;2.97;2.78;;;;;;;;;;5073619;28;20224;-76
2023/06/11 14:13:53;;;;;;;2.88;2.67;;;;;;;;;;5073069;28;20230;-76
2023/06/11 14:16:20;;;;;;;3.70;3.40;;;;;;;;;;5073262;28;20205;-76
2023/06/11 14:18:48;;;;;;;3.22;2.60;;;;;;;;;;5072901;28;20319;-76
2023/06/11 14:21:15;;;;;;;4.85;3.25;;;;;;;;;;5073394;28;20212;-77
2023/06/11 14:23:42;;;;;;;3.35;3.05;;;;;;;;;;5073427;28;20598;-76
2023/06/11 14:26:11;;;;;;;3.30;3.05;;;;;;;;;;5073094;28;20197;-76
2023/06/11 14:28:39;;;;;;;3.70;3.40;;;;;;;;;;5073029;28;20598;-76
2023/06/11 14:31:06;;;;;;;2.60;2.50;;;;;;;;;;5072585;28;20221;-76
2023/06/11 14:33:34;;;;;;;2.97;2.78;;;;;;;;;;5073017;28;20207;-76
2023/06/11 14:36:04;;;;;;;3.55;3.33;;;;;;;;;;5072614;28;20227;-76
2023/06/11 14:38:32;;;;;;;3.53;3.20;;;;;;;;;;5072993;28;20697;-75
2023/06/11 14:40:59;;;;;;;3.67;3.38;;;;;;;;;;5072709;28;20578;-76
2023/06/11 14:43:28;;;;;;;3.25;2.88;;;;;;;;;;5073141;28;20308;-77
2023/06/11 14:45:56;;;;;;;2.80;2.60;;;;;;;;;;5072910;28;20575;-76
2023/06/11 14:48:23;;;;;;;3.53;3.22;;;;;;;;;;5072219;28;20224;-77
2023/06/11 14:50:51;;;;;;;2.53;2.38;;;;;;;;;;5072293;28;20223;-76
2023/06/11 14:53:18;;;;;;;3.38;3.08;;;;;;;;;;5072503;28;20205;-76